METAR AND TAF INFORMATION
METAR FOR KCLS
KCLS 211715Z AUTO 00000KT 10SM CLR 22/13 A2996 RMK AO2
KCLS 211655Z AUTO 00000KT 10SM CLR 21/13 A2997 RMK AO2
KCLS 211635Z AUTO 03005KT 10SM CLR 20/13 A2997 RMK AO2
KCLS 211615Z AUTO 00000KT 10SM CLR 19/14 A2997 RMK AO2
KCLS 211555Z AUTO 04003KT 10SM CLR 17/14 A2997 RMK AO2
KCLS 211535Z AUTO 00000KT 10SM CLR 16/13 A2998 RMK AO2
KCLS 211515Z AUTO 00000KT 10SM CLR 15/13 A2997 RMK AO2
KCLS 211455Z AUTO 00000KT 10SM CLR 15/13 A2998 RMK AO2
KCLS 211435Z AUTO 00000KT 10SM CLR 14/13 A2998 RMK AO2
KCLS 211415Z AUTO 00000KT 10SM CLR 13/13 A2998 RMK AO2
KCLS 211355Z AUTO 00000KT 10SM CLR 13/13 A2998 RMK AO2

 AIRPORT MAP

 RUNWAY INFORMATION
Runway 16 Runway length 5000 ft Runway width 150 ft
Runway elevation 168 ft Runway displaced threshold 0 ft Runway heading 178
Runway 34 Runway length 5000 ft Runway width 150 ft
Runway elevation 173 ft Runway displaced threshold 0 ft Runway heading 358

 AIRPORT FREQUENCIES
Type APP Name SEATTLE AP Frequency 121.1 MHZ
Type DEP Name SEATTLE DE Frequency 124.2 MHZ
Type UNIC Name CTAF/UNICO Frequency 122.8 MHZ

 AIRPORT NEAR NAVIGATION AIDS

-